BYI - Burley Muni

Pirep is a free, collaborative database of all public and private airports located within the United States. All pilots are welcome to contribute, edit, and improve any airport they have local knowledge about, no registration required.
Are you familiar with this airport? Help out other pilots by adding your local knowledge.
Uploaded photos will be licensed under a CC BY-SA 4.0 license. Please only upload photos you have the rights to use.
Tags
Public
Undocu­mented
METAR / TAF
Edit Tags
Food
Camping
Lodging
Car Rental
Bicycles
Swimming
Golfing
Fishing
Hot Springs
Museum
Flying Clubs
Airpark
Upcoming Events
No upcoming events. Is anything happening here soon?
*
*
*

Where exactly on/near the airport is this event taking place?

Is there a webpage with more information for this event?

Who should be contacted for more information?

What is this event all about?

Repeat every
Description
Transient Parking
Fuel Location
Landing & Tie-down Fees
Crew Car Availability
Flying Clubs
WiFi Access
Airport Statistics
Location: Burley, ID
Elevation: 4,153ft
Sectional: Salt Lake City
Activation date: Apr 1940
Fuel: 100LL, A (prices)
Runway 02/20: 4,092ft
Runway 06/24: 4,072ft
Access: Open to the public
Current Weather — VFR
  • Weather data is strictly informational and not for flight planning purposes.
  • METAR
    2024-05-30 02:53:00 MDT
    Ceiling Wind Temperature Dewpoint Weather Visbility
    Sky clear 230° @ 8kt 42°F 32°F N/A 10SM
    Raw: KBYI 300853Z AUTO 23008KT 10SM CLR 06/00 A3019 RMK AO2 SLP205 T00610000 51004
  • TAF
    2024-05-30 00:00:00 MDT – 2024-05-30 12:00:00 MDT
    Ceiling Wind Weather Visbility
    Sky clear 250° @ 11kt N/A 6SM
    Clouds: @ ft
    Raw: KBYI 300520Z 3006/3106 25011KT P6SM SKC FM301800 27015G25KT P6SM SKC FM310300 25009KT P6SM SKC
  • TAF
    2024-05-30 12:00:00 MDT – 2024-05-30 21:00:00 MDT
    Ceiling Wind Weather Visbility
    Sky clear 270° @ 15kt, gusts 25kt N/A 6SM
    Clouds: @ ft
    Raw: KBYI 300520Z 3006/3106 25011KT P6SM SKC FM301800 27015G25KT P6SM SKC FM310300 25009KT P6SM SKC
  • TAF
    2024-05-30 21:00:00 MDT – 2024-05-31 00:00:00 MDT
    Ceiling Wind Weather Visbility
    Sky clear 250° @ 9kt N/A 6SM
    Clouds: @ ft
    Raw: KBYI 300520Z 3006/3106 25011KT P6SM SKC FM301800 27015G25KT P6SM SKC FM310300 25009KT P6SM SKC
Click/tap to add an annotation marker to the map
Airport Webcams
No webcams added yet.
Direct links to live image URLs will be displayed inline on this page. URLs to separate webpages will be linked to.
URL:
Direct links to live image URLs will be displayed inline on this page. URLs to separate webpages will be linked to.
URL:
Remarks
  • Estabd prior to 15 may 1959.
  • Birds invof all rwys; especially aer 20 & aer 24.
  • Ry 02 & 06; numerous close in obstructions. rr box cars may be parked on tracks off end of ry 02 & 06.
  • Mkd helipad on ramp in front of fbo bldg.
  • Agricultural activity on and invof all rys apr-oct.
  • For cd ctc twin falls apch at 208-734-7160, when apch clsd ctc salt lake artcc at 801-320-2568.
  • For fuel sales ctc fbo. nr on the fbo door.
  • Actvt reil rwy 20; mirl rwy 02/20 & 06/24 - ctaf (3 clicks to turn on). vasi rwy 02 & 24 opr consly.
Comments
Leave a comment What was your experience like at this airport?